Time;durP1;ratioP1;P1;durP2;ratioP2;P2;SDS_P1;SDS_P2;PMS_P1;PMS_P2;Temp;Humidity;BMP_temperature;BMP_pressure;BME280_temperature;BME280_humidity;BME280_pressure;Samples;Min_cycle;Max_cycle;Signal;HPM_P1;HPM_P2
2023/10/04 00:07:20;;;;;;;4.47;2.50;;;15.40;98.20;;;;;;20920468;28;20215;-65
2023/10/04 00:17:22;;;;;;;4.03;2.40;;;15.40;98.00;;;;;;20902467;28;20235;-66
2023/10/04 00:27:24;;;;;;;4.37;2.33;;;15.30;97.80;;;;;;20918948;28;20651;-66
2023/10/04 00:37:26;;;;;;;2.93;2.17;;;15.30;97.80;;;;;;20918085;28;20243;-65
2023/10/04 00:47:27;;;;;;;3.73;2.43;;;15.20;97.80;;;;;;20917732;28;20298;-64
2023/10/04 00:57:29;;;;;;;3.43;2.40;;;15.20;98.00;;;;;;20916161;28;20253;-64
2023/10/04 01:07:31;;;;;;;4.43;2.30;;;15.20;98.10;;;;;;20915741;28;20675;-66
2023/10/04 01:17:35;;;;;;;3.87;2.23;;;15.20;98.20;;;;;;20915355;28;20246;-66
2023/10/04 01:27:38;;;;;;;4.57;2.50;;;15.20;98.10;;;;;;20914345;28;20212;-66
2023/10/04 01:37:40;;;;;;;3.80;2.40;;;15.30;97.90;;;;;;20913494;28;20235;-65
2023/10/04 01:47:42;;;;;;;4.97;2.40;;;15.20;98.10;;;;;;20913375;28;20204;-65
2023/10/04 01:57:45;;;;;;;3.40;2.33;;;15.10;98.00;;;;;;20912065;28;20322;-66
2023/10/04 02:07:47;;;;;;;4.77;2.40;;;15.00;98.10;;;;;;20911578;28;20215;-66
2023/10/04 02:17:53;;;;;;;8.17;2.90;;;14.80;98.20;;;;;;20911800;28;20338;-67
2023/10/04 02:28:06;;;;;;;3.47;2.50;;;14.80;98.30;;;;;;20911434;28;20703;-66
2023/10/04 02:38:16;;;;;;;4.03;2.50;;;14.70;98.40;;;;;;20910749;28;20505;-66
2023/10/04 02:48:23;;;;;;;4.70;2.83;;;14.60;98.60;;;;;;20910876;28;20264;-64
2023/10/04 02:58:26;;;;;;;5.27;2.40;;;14.50;98.60;;;;;;20909799;28;20246;-65
2023/10/04 03:08:28;;;;;;;3.07;2.27;;;14.50;98.70;;;;;;20909537;28;20208;-67
2023/10/04 03:18:31;;;;;;;8.53;2.27;;;14.50;98.80;;;;;;20921933;28;20274;-65
2023/10/04 03:28:37;;;;;;;4.40;2.40;;;14.60;98.90;;;;;;20923413;28;20204;-66
2023/10/04 03:38:39;;;;;;;3.90;2.70;;;14.30;98.60;;;;;;20922842;28;20243;-64
2023/10/04 03:48:42;;;;;;;4.87;2.73;;;14.20;98.90;;;;;;20922351;28;20210;-66
2023/10/04 03:58:44;;;;;;;4.53;2.73;;;14.20;99.10;;;;;;20920994;28;20240;-65
2023/10/04 04:08:47;;;;;;;3.80;2.70;;;14.20;99.20;;;;;;20920379;28;20239;-65
2023/10/04 04:18:54;;;;;;;4.67;2.80;;;14.20;99.20;;;;;;20920026;28;20239;-66
2023/10/04 04:28:57;;;;;;;6.40;3.13;;;14.20;99.30;;;;;;20918615;28;20214;-67
2023/10/04 04:39:04;;;;;;;4.50;3.10;;;14.10;99.10;;;;;;20917979;28;20235;-66
2023/10/04 04:49:07;;;;;;;5.07;3.10;;;14.10;99.40;;;;;;20917296;28;20558;-69
2023/10/04 04:59:09;;;;;;;4.33;2.90;;;14.10;99.50;;;;;;20914848;28;20242;-69
2023/10/04 05:09:10;;;;;;;4.93;2.90;;;14.00;99.50;;;;;;20913188;28;20254;-68
2023/10/04 05:19:13;;;;;;;5.93;3.07;;;14.00;99.50;;;;;;20915085;28;20238;-67
2023/10/04 05:29:15;;;;;;;5.23;3.53;;;13.90;99.50;;;;;;20914103;28;20211;-68
2023/10/04 05:39:17;;;;;;;11.03;3.43;;;13.90;99.60;;;;;;20911386;28;20239;-70
2023/10/04 05:49:19;;;;;;;7.87;4.87;;;13.90;99.70;;;;;;20910750;28;20215;-70
2023/10/04 05:59:21;;;;;;;9.77;4.03;;;14.00;99.80;;;;;;20912044;28;20681;-70
2023/10/04 06:09:29;;;;;;;6.73;3.53;;;14.00;99.70;;;;;;20910884;28;20566;-70
2023/10/04 06:19:31;;;;;;;8.33;3.27;;;13.90;99.70;;;;;;20911042;28;20227;-70
2023/10/04 06:29:32;;;;;;;9.70;3.60;;;13.90;99.80;;;;;;20910508;28;20294;-70
2023/10/04 06:39:34;;;;;;;6.17;3.53;;;14.00;99.90;;;;;;20909597;28;20230;-71
2023/10/04 06:49:36;;;;;;;5.83;3.33;;;14.10;99.90;;;;;;20918710;28;20572;-70
2023/10/04 06:59:38;;;;;;;6.57;3.20;;;14.30;99.90;;;;;;20925273;28;20246;-69
2023/10/04 07:09:40;;;;;;;4.77;3.13;;;14.40;99.90;;;;;;20924612;28;20659;-69
2023/10/04 07:19:42;;;;;;;5.03;2.90;;;14.50;99.60;;;;;;20923255;28;20769;-69
2023/10/04 07:29:45;;;;;;;5.30;2.83;;;14.60;99.50;;;;;;20923128;28;20208;-69
2023/10/04 07:39:47;;;;;;;5.70;2.70;;;14.70;99.40;;;;;;20922298;28;20323;-69
2023/10/04 07:49:49;;;;;;;6.33;2.30;;;14.90;99.00;;;;;;20921422;28;20290;-70
2023/10/04 07:59:51;;;;;;;5.63;2.50;;;15.10;98.60;;;;;;20920112;28;20276;-71
2023/10/04 08:09:53;;;;;;;12.20;2.73;;;15.30;98.50;;;;;;20920223;28;20200;-70
2023/10/04 08:19:55;;;;;;;5.23;2.47;;;15.40;97.90;;;;;;20919026;28;20243;-69
2023/10/04 08:29:57;;;;;;;5.77;2.70;;;15.60;97.60;;;;;;20918753;28;20208;-70
2023/10/04 08:39:59;;;;;;;7.53;2.60;;;15.70;97.40;;;;;;20917555;28;20272;-69
2023/10/04 08:50:06;;;;;;;7.57;2.70;;;15.80;97.10;;;;;;20916768;28;20760;-71
2023/10/04 09:00:14;;;;;;;4.73;2.07;;;15.90;96.60;;;;;;20916039;28;20268;-71
2023/10/04 09:10:34;;;;;;;6.40;2.20;;;15.90;96.30;;;;;;20914174;28;20206;-71
2023/10/04 09:20:36;;;;;;;6.00;2.07;;;16.20;95.70;;;;;;20914085;28;20235;-71
2023/10/04 09:30:39;;;;;;;8.50;2.70;;;16.30;95.20;;;;;;20914130;28;20246;-71
2023/10/04 09:41:10;;;;;;;4.30;2.17;;;16.20;94.70;;;;;;20912867;28;20614;-69
2023/10/04 09:51:13;;;;;;;8.63;2.10;;;16.60;94.50;;;;;;20911642;28;20741;-69
2023/10/04 10:01:19;;;;;;;5.57;2.20;;;16.70;94.00;;;;;;20912221;28;20235;-69
2023/10/04 10:11:22;;;;;;;4.53;2.00;;;16.80;93.80;;;;;;20911684;28;20212;-72
2023/10/04 10:22:02;;;;;;;5.67;1.87;;;16.90;93.70;;;;;;20915243;28;20260;-71
2023/10/04 10:32:13;;;;;;;8.70;2.07;;;17.00;92.90;;;;;;20927989;28;20285;-72
2023/10/04 10:42:15;;;;;;;5.80;2.07;;;16.90;93.00;;;;;;20926745;28;20242;-69
2023/10/04 10:52:38;;;;;;;3.83;1.70;;;16.90;92.60;;;;;;20925945;28;20433;-70
2023/10/04 11:02:41;;;;;;;5.10;1.77;;;17.20;92.30;;;;;;20925238;28;20269;-71
2023/10/04 11:12:44;;;;;;;3.93;1.50;;;17.50;91.00;;;;;;20924480;28;20237;-72
2023/10/04 11:22:49;;;;;;;6.07;2.60;;;17.50;89.00;;;;;;20923732;28;20661;-70
2023/10/04 11:32:50;;;;;;;5.83;2.50;;;17.80;87.10;;;;;;20925961;28;20215;-73
2023/10/04 11:42:59;;;;;;;10.57;2.43;;;18.00;86.00;;;;;;20942071;28;20293;-75
2023/10/04 11:53:02;;;;;;;5.13;1.83;;;18.20;85.00;;;;;;20984426;28;20241;-70
2023/10/04 12:03:09;;;;;;;7.03;1.90;;;;;;;;;;20988451;28;20611;-65
2023/10/04 12:13:13;;;;;;;6.33;2.17;;;;;;;;;;20981137;28;20440;-69
2023/10/04 12:23:16;;;;;;;4.60;2.00;;;;;;;;;;20913724;28;20470;-74
2023/10/04 12:33:18;;;;;;;5.73;1.87;;;;;;;;;;20918430;28;20214;-70
2023/10/04 12:43:21;;;;;;;7.37;2.33;;;;;;;;;;20915409;28;20468;-72
2023/10/04 12:53:23;;;;;;;4.87;1.97;;;;;;;;;;20984700;28;20231;-73
2023/10/04 13:03:25;;;;;;;4.37;2.50;;;;;;;;;;20998594;28;20271;-70
2023/10/04 13:13:28;;;;;;;7.60;2.13;;;;;;;;;;20998188;28;20302;-72
2023/10/04 13:23:34;;;;;;;6.80;2.17;;;;;;;;;;20997073;28;20591;-77
2023/10/04 13:33:36;;;;;;;6.63;2.60;;;;;;;;;;20994186;28;20207;-70
2023/10/04 13:43:38;;;;;;;5.80;2.63;;;;;;;;;;20994062;28;20304;-71
2023/10/04 13:53:41;;;;;;;7.90;2.40;;;;;;;;;;20995552;28;20231;-73
2023/10/04 14:03:45;;;;;;;7.00;3.27;;;;;;;;;;20993634;28;20267;-68
2023/10/04 14:13:51;;;;;;;9.43;2.70;;;;;;;;;;20993517;28;20297;-72
2023/10/04 14:23:53;;;;;;;7.57;2.90;;;;;;;;;;20979677;28;20228;-75
2023/10/04 14:33:55;;;;;;;5.80;3.00;;;;;;;;;;20958689;28;20207;-72
2023/10/04 14:43:57;;;;;;;6.10;3.00;;;19.00;73.20;;;;;;20950784;28;20227;-71
2023/10/04 14:53:59;;;;;;;8.07;3.30;;;19.30;63.50;;;;;;20909573;28;20232;-68
2023/10/04 15:04:01;;;;;;;6.57;3.17;;;19.10;63.90;;;;;;20976823;28;20227;-69
2023/10/04 15:14:06;;;;;;;7.70;3.10;;;19.10;64.20;;;;;;21006566;28;20215;-70
2023/10/04 15:24:14;;;;;;;9.50;4.37;;;19.00;64.40;;;;;;21007031;28;20326;-70
2023/10/04 15:34:15;;;;;;;6.57;3.10;;;18.80;64.60;;;;;;20969730;28;20246;-70
2023/10/04 15:44:18;;;;;;;8.77;3.53;;;18.70;65.70;;;;;;20922820;28;20323;-68
2023/10/04 15:54:20;;;;;;;9.47;4.70;;;18.70;66.10;;;;;;20921926;28;20701;-68
2023/10/04 16:04:22;;;;;;;7.97;3.80;;;18.60;67.20;;;;;;20921038;28;20232;-67
2023/10/04 16:14:25;;;;;;;5.83;3.40;;;18.40;68.10;;;;;;20920517;28;20204;-68
2023/10/04 16:24:31;;;;;;;7.33;3.47;;;18.40;68.70;;;;;;20917848;28;20242;-67
2023/10/04 16:34:33;;;;;;;7.47;3.87;;;18.20;69.20;;;;;;20956075;28;20207;-68
2023/10/04 16:44:35;;;;;;;6.53;3.50;;;18.10;69.90;;;;;;21000961;28;20291;-68
2023/10/04 16:54:36;;;;;;;9.50;3.80;;;17.90;70.50;;;;;;20999515;28;20265;-71
2023/10/04 17:04:38;;;;;;;7.47;3.97;;;17.70;71.40;;;;;;20997891;28;20242;-66
2023/10/04 17:14:40;;;;;;;8.67;4.63;;;17.40;73.50;;;;;;20995994;28;20668;-68
2023/10/04 17:24:43;;;;;;;11.47;4.33;;;17.30;75.20;;;;;;20997145;28;20234;-63
2023/10/04 17:34:45;;;;;;;8.97;4.93;;;17.00;76.50;;;;;;20996058;28;20203;-67
2023/10/04 17:44:47;;;;;;;18.77;9.47;;;16.90;78.10;;;;;;20996160;28;20212;-68
2023/10/04 17:54:52;;;;;;;11.57;6.03;;;16.70;79.40;;;;;;20993751;28;20616;-67
2023/10/04 18:04:54;;;;;;;13.57;6.57;;;16.60;80.20;;;;;;20993388;28;20624;-67
2023/10/04 18:14:55;;;;;;;19.17;6.40;;;16.50;80.80;;;;;;20995214;28;20238;-69
2023/10/04 18:24:57;;;;;;;9.73;6.90;;;16.50;82.10;;;;;;20992163;28;20682;-67
2023/10/04 18:35:00;;;;;;;11.23;5.73;;;16.10;83.60;;;;;;20992118;28;20243;-69
2023/10/04 18:45:06;;;;;;;9.10;4.93;;;15.90;85.00;;;;;;20985308;28;20215;-69
2023/10/04 18:55:09;;;;;;;11.33;5.43;;;15.90;86.20;;;;;;20960729;28;20255;-69
2023/10/04 19:05:13;;;;;;;17.07;7.90;;;15.70;87.50;;;;;;20980973;28;20214;-68
2023/10/04 19:15:16;;;;;;;14.23;6.97;;;15.60;89.20;;;;;;21007415;28;20224;-69
2023/10/04 19:25:18;;;;;;;10.83;5.50;;;15.50;90.20;;;;;;20924784;28;20232;-68
2023/10/04 19:35:20;;;;;;;15.20;8.13;;;15.40;90.60;;;;;;20922463;28;20255;-68
2023/10/04 19:45:22;;;;;;;14.27;6.10;;;15.20;91.10;;;;;;20922950;28;20200;-69
2023/10/04 19:55:24;;;;;;;11.60;5.27;;;15.00;91.80;;;;;;20920806;28;20249;-69
2023/10/04 20:05:32;;;;;;;13.77;5.80;;;15.00;92.40;;;;;;20920988;28;20294;-69
2023/10/04 20:15:37;;;;;;;19.00;7.60;;;14.90;92.60;;;;;;20920904;28;20286;-69
2023/10/04 20:25:41;;;;;;;15.47;6.93;;;14.60;92.80;;;;;;20919595;28;20215;-68
2023/10/04 20:35:43;;;;;;;12.70;5.57;;;14.40;93.30;;;;;;20918926;28;20228;-68
2023/10/04 20:45:45;;;;;;;11.97;5.60;;;14.30;93.80;;;;;;20919015;28;20210;-68
2023/10/04 20:55:46;;;;;;;19.73;7.57;;;14.10;94.10;;;;;;20917282;28;20694;-68
2023/10/04 21:05:49;;;;;;;10.60;5.20;;;14.00;94.60;;;;;;20916526;28;20245;-68
2023/10/04 21:15:51;;;;;;;10.60;5.63;;;13.70;94.80;;;;;;20916244;28;20259;-69
2023/10/04 21:25:53;;;;;;;14.67;6.53;;;13.60;95.20;;;;;;20915416;28;20211;-69
2023/10/04 21:36:08;;;;;;;13.87;4.70;;;13.50;95.40;;;;;;20914359;28;20692;-68
2023/10/04 21:46:11;;;;;;;10.13;5.00;;;13.50;95.70;;;;;;20914040;28;20267;-68
2023/10/04 21:56:13;;;;;;;14.60;4.97;;;13.50;95.90;;;;;;20913647;28;20602;-68
2023/10/04 22:06:17;;;;;;;8.30;4.43;;;13.40;95.90;;;;;;20912662;28;20301;-67
2023/10/04 22:16:20;;;;;;;13.07;4.97;;;13.20;96.30;;;;;;20912143;28;20251;-66
2023/10/04 22:26:22;;;;;;;9.90;5.00;;;13.10;96.40;;;;;;20911764;28;20212;-67
2023/10/04 22:36:24;;;;;;;8.67;4.93;;;13.10;96.50;;;;;;20910475;28;20260;-66
2023/10/04 22:46:37;;;;;;;10.97;4.70;;;13.10;96.60;;;;;;20911372;28;20209;-67
2023/10/04 22:56:42;;;;;;;7.97;4.27;;;13.00;96.70;;;;;;20910821;28;20342;-68
2023/10/04 23:06:45;;;;;;;9.17;4.20;;;13.00;97.10;;;;;;20909937;28;20208;-68
2023/10/04 23:16:46;;;;;;;9.07;4.17;;;12.90;96.70;;;;;;20910062;28;20252;-68
2023/10/04 23:26:50;;;;;;;10.40;4.90;;;12.90;96.80;;;;;;20910919;28;20213;-68
2023/10/04 23:36:52;;;;;;;8.17;5.00;;;12.80;96.80;;;;;;20923708;28;20670;-68
2023/10/04 23:46:57;;;;;;;9.07;4.43;;;12.80;96.90;;;;;;20923772;28;20200;-67
2023/10/04 23:57:13;;;;;;;10.73;4.60;;;12.70;96.70;;;;;;20922370;28;20247;-67
